Time;durP1;ratioP1;P1;durP2;ratioP2;P2;SDS_P1;SDS_P2;PMS_P1;PMS_P2;Temp;Humidity;BMP_temperature;BMP_pressure;BME280_temperature;BME280_humidity;BME280_pressure;Samples;Min_cycle;Max_cycle;Signal;HPM_P1;HPM_P2
2021/04/17 00:00:58;;;;;;;12.90;5.45;;;;;;;3.83;81.49;102896.19;5065245;28;20330;-71
2021/04/17 00:03:24;;;;;;;11.50;4.82;;;;;;;3.83;81.19;102890.88;5064433;28;20096;-71
2021/04/17 00:05:49;;;;;;;12.80;5.38;;;;;;;3.84;81.02;102894.41;5063595;28;20028;-73
2021/04/17 00:08:15;;;;;;;9.55;4.75;;;;;;;3.86;81.58;102899.63;5065950;28;20033;-71
2021/04/17 00:10:40;;;;;;;14.98;4.85;;;;;;;3.85;81.71;102893.50;5061998;28;20115;-71
2021/04/17 00:13:06;;;;;;;16.70;4.72;;;;;;;3.83;81.96;102897.97;5059823;28;20028;-71
2021/04/17 00:15:33;;;;;;;13.68;4.80;;;;;;;3.81;82.30;102886.59;5063357;28;20066;-71
2021/04/17 00:18:00;;;;;;;10.43;5.40;;;;;;;3.75;82.05;102878.91;5066772;28;20542;-71
2021/04/17 00:20:25;;;;;;;14.38;5.28;;;;;;;3.76;81.90;102894.69;5065442;28;20459;-72
2021/04/17 00:22:52;;;;;;;9.20;5.30;;;;;;;3.75;82.01;102892.97;5064019;28;20040;-71
2021/04/17 00:25:18;;;;;;;9.65;4.85;;;;;;;3.73;82.49;102893.97;5064008;28;20033;-71
2021/04/17 00:27:44;;;;;;;11.30;4.88;;;;;;;3.59;81.68;102876.88;5063072;28;20037;-71
2021/04/17 00:30:10;;;;;;;10.23;5.22;;;;;;;3.70;82.32;102894.91;5064816;28;20050;-72
2021/04/17 00:32:37;;;;;;;10.43;4.90;;;;;;;3.66;82.01;102894.19;5066067;28;20112;-72
2021/04/17 00:35:03;;;;;;;10.50;5.20;;;;;;;3.65;81.99;102887.19;5052494;28;20043;-71
2021/04/17 00:37:28;;;;;;;10.05;5.32;;;;;;;3.35;82.34;102845.16;5045988;28;20456;-72
2021/04/17 00:39:54;;;;;;;8.35;5.10;;;;;;;3.61;82.75;102882.06;5054520;28;20040;-71
2021/04/17 00:42:19;;;;;;;7.95;4.25;;;;;;;3.64;82.36;102888.09;5063509;28;20032;-71
2021/04/17 00:44:45;;;;;;;11.93;4.72;;;;;;;3.64;82.03;102884.59;5060442;28;20082;-71
2021/04/17 00:47:12;;;;;;;10.48;4.18;;;;;;;3.61;81.80;102887.34;5061126;28;20042;-71
2021/04/17 00:49:37;;;;;;;9.32;4.40;;;;;;;3.39;81.38;102860.88;5064004;28;20033;-71
2021/04/17 00:52:03;;;;;;;8.60;4.30;;;;;;;3.53;81.66;102883.19;5058233;28;20024;-71
2021/04/17 00:54:28;;;;;;;11.57;4.22;;;;;;;3.47;81.96;102883.44;5052466;28;20034;-71
2021/04/17 00:56:55;;;;;;;6.15;3.90;;;;;;;3.45;82.25;102884.44;5058248;28;20033;-72
2021/04/17 00:59:20;;;;;;;12.80;4.68;;;;;;;3.42;81.86;102876.63;5067718;28;20031;-71
2021/04/17 01:01:47;;;;;;;11.68;4.22;;;;;;;3.29;81.96;102863.88;5072941;28;20028;-71
2021/04/17 01:04:22;;;;;;;7.97;3.80;;;;;;;3.37;82.22;102888.19;5092863;27;20028;-71
2021/04/17 01:07:16;;;;;;;9.93;4.60;;;;;;;3.17;81.48;102849.34;5065496;28;20515;-71
2021/04/17 01:09:45;;;;;;;7.45;4.20;;;;;;;3.27;82.23;102876.25;5065625;28;20255;-71
2021/04/17 01:12:18;;;;;;;7.32;4.38;;;;;;;3.23;82.17;102879.91;5059291;28;20687;-71
2021/04/17 01:14:46;;;;;;;6.47;3.80;;;;;;;3.20;82.59;102880.91;5061998;28;20024;-72
2021/04/17 01:17:12;;;;;;;7.40;4.25;;;;;;;3.20;82.46;102880.00;5063152;28;20020;-74
2021/04/17 01:19:55;;;;;;;7.50;4.03;;;;;;;3.22;82.85;102881.69;5062246;28;20543;-71
2021/04/17 01:22:24;;;;;;;7.25;4.50;;;;;;;3.21;83.10;102872.06;5079446;28;20048;-71
2021/04/17 01:25:06;;;;;;;7.32;3.95;;;;;;;3.21;82.82;102872.06;5061713;28;20042;-71
2021/04/17 01:27:32;;;;;;;9.75;4.43;;;;;;;3.28;82.83;102875.34;5063889;28;20028;-71
2021/04/17 01:29:58;;;;;;;8.18;4.20;;;;;;;3.28;83.24;102883.25;5092168;27;20083;-71
2021/04/17 01:32:24;;;;;;;14.35;4.93;;;;;;;3.25;83.42;102883.38;5061681;28;20044;-71
2021/04/17 01:34:51;;;;;;;9.63;4.32;;;;;;;3.26;83.83;102876.31;5057332;28;20032;-71
2021/04/17 01:37:20;;;;;;;11.93;4.60;;;;;;;3.28;83.03;102879.75;5056242;28;20132;-70
2021/04/17 01:39:46;;;;;;;12.93;4.20;;;;;;;3.30;83.45;102880.56;5055029;28;20135;-71
2021/04/17 01:42:15;;;;;;;14.23;5.00;;;;;;;3.28;83.34;102877.97;5059262;28;20313;-70
2021/04/17 01:44:45;;;;;;;18.58;6.28;;;;;;;3.28;83.51;102874.47;5058144;28;20040;-71
2021/04/17 01:47:13;;;;;;;17.65;7.65;;;;;;;3.20;84.11;102872.09;5059008;28;20538;-71
2021/04/17 01:49:44;;;;;;;11.77;5.88;;;;;;;3.19;84.10;102871.25;5057598;28;20060;-71
2021/04/17 01:52:13;;;;;;;11.23;4.57;;;;;;;3.17;84.67;102870.44;5060154;28;20042;-72
2021/04/17 01:54:50;;;;;;;12.02;4.63;;;;;;;3.18;84.71;102873.97;5075035;28;20044;-71
2021/04/17 01:57:21;;;;;;;12.60;5.18;;;;;;;3.15;84.67;102871.41;5057679;28;20028;-72
2021/04/17 01:59:48;;;;;;;7.95;3.75;;;;;;;3.12;85.15;102863.59;5056622;28;20579;-71
2021/04/17 02:02:16;;;;;;;8.63;4.40;;;;;;;2.94;85.73;102836.97;5057845;28;20036;-71
2021/04/17 02:04:41;;;;;;;9.38;4.18;;;;;;;3.09;85.28;102876.91;5057289;28;20036;-71
2021/04/17 02:07:07;;;;;;;11.55;4.93;;;;;;;3.09;86.08;102856.66;5055822;28;20036;-71
2021/04/17 02:09:32;;;;;;;11.27;4.82;;;;;;;3.09;85.64;102861.94;5054188;28;20028;-71
2021/04/17 02:11:58;;;;;;;10.93;4.78;;;;;;;3.10;85.60;102862.78;5056259;28;20622;-72
2021/04/17 02:14:23;;;;;;;10.30;4.60;;;;;;;3.11;85.50;102862.75;5057537;28;20042;-72
2021/04/17 02:17:01;;;;;;;10.15;4.72;;;;;;;3.08;85.38;102860.22;5055441;28;20033;-72
2021/04/17 02:19:31;;;;;;;9.40;4.38;;;;;;;3.04;85.86;102861.25;5058311;28;20044;-71
2021/04/17 02:21:59;;;;;;;13.07;4.57;;;;;;;3.02;85.37;102866.59;5058640;28;20174;-72
2021/04/17 02:24:27;;;;;;;13.98;5.30;;;;;;;2.96;86.21;102858.03;5056491;28;20486;-72
2021/04/17 02:26:53;;;;;;;21.30;5.30;;;;;;;2.93;86.48;102861.59;5072413;28;20035;-71
2021/04/17 02:29:20;;;;;;;12.00;5.10;;;;;;;2.90;86.37;102862.59;5056206;28;20029;-71
2021/04/17 02:31:45;;;;;;;10.50;5.38;;;;;;;2.89;87.18;102860.88;5059517;28;20029;-71
2021/04/17 02:34:11;;;;;;;7.35;4.65;;;;;;;2.87;87.37;102864.47;5055693;28;20433;-71
2021/04/17 02:36:36;;;;;;;10.80;5.28;;;;;;;2.89;87.06;102860.00;5059445;28;20139;-71
2021/04/17 02:39:03;;;;;;;10.55;5.10;;;;;;;2.89;87.01;102862.66;5057712;28;20048;-71
2021/04/17 02:41:29;;;;;;;9.52;5.45;;;;;;;2.88;87.41;102859.13;5056290;28;20528;-72
2021/04/17 02:43:55;;;;;;;16.85;5.20;;;;;;;2.90;87.22;102851.19;5057577;28;20029;-71
2021/04/17 02:46:20;;;;;;;7.55;4.65;;;;;;;2.75;87.20;102832.34;5056513;28;20083;-72
2021/04/17 02:48:46;;;;;;;9.68;5.07;;;;;;;2.89;87.26;102857.38;5058560;28;20024;-71
2021/04/17 02:51:12;;;;;;;14.30;5.28;;;;;;;2.64;86.73;102812.53;5060609;28;20036;-71
2021/04/17 02:53:37;;;;;;;10.68;5.55;;;;;;;2.88;87.14;102855.66;5061751;28;20085;-71
2021/04/17 02:56:03;;;;;;;12.63;5.07;;;;;;;2.40;87.68;102789.59;5063029;28;20057;-71
2021/04/17 02:58:28;;;;;;;12.88;5.65;;;;;;;2.67;87.88;102834.38;5055045;28;20024;-71
2021/04/17 03:00:54;;;;;;;12.05;5.00;;;;;;;2.79;87.95;102846.28;5057357;28;20135;-71
2021/04/17 03:03:19;;;;;;;11.95;4.93;;;;;;;2.78;87.81;102848.97;5074616;28;20047;-71
2021/04/17 03:05:45;;;;;;;9.73;4.85;;;;;;;2.54;88.06;102807.59;5067269;28;20494;-71
2021/04/17 03:08:13;;;;;;;10.02;5.10;;;;;;;2.78;88.12;102848.97;5063663;28;20350;-71
2021/04/17 03:10:39;;;;;;;12.00;5.22;;;;;;;2.73;88.10;102847.34;5059048;28;20110;-71
2021/04/17 03:13:06;;;;;;;12.18;5.63;;;;;;;2.72;88.46;102843.00;5061451;28;20034;-71
2021/04/17 03:15:31;;;;;;;10.98;5.93;;;;;;;2.11;88.53;102744.00;5060735;28;20111;-71
2021/04/17 03:17:59;;;;;;;14.40;5.55;;;;;;;2.71;88.72;102849.19;5055948;28;20052;-71
2021/04/17 03:20:25;;;;;;;15.90;5.90;;;;;;;2.70;88.42;102836.06;5057133;28;20375;-71
2021/04/17 03:22:51;;;;;;;13.88;6.00;;;;;;;2.69;88.89;102842.25;5062081;28;20029;-71
2021/04/17 03:25:16;;;;;;;16.95;6.30;;;;;;;2.39;88.52;102792.28;5062296;28;20044;-71
2021/04/17 03:27:42;;;;;;;15.90;6.25;;;;;;;2.72;88.64;102847.38;5054902;28;20444;-71
2021/04/17 03:30:12;;;;;;;16.02;6.68;;;;;;;2.71;88.56;102843.06;5059613;28;20165;-71
2021/04/17 03:32:38;;;;;;;16.83;6.38;;;;;;;2.73;88.21;102842.06;5063931;28;20060;-74
2021/04/17 03:35:08;;;;;;;14.55;6.20;;;;;;;2.32;88.17;102778.44;5057550;28;20024;-71
2021/04/17 03:37:34;;;;;;;13.73;6.95;;;;;;;2.69;88.41;102840.44;5058804;28;20052;-71
2021/04/17 03:39:59;;;;;;;14.93;7.07;;;;;;;2.65;88.47;102849.38;5073646;28;20040;-71
2021/04/17 03:42:25;;;;;;;15.77;7.95;;;;;;;2.62;89.00;102841.59;5075419;28;20046;-73
2021/04/17 03:44:50;;;;;;;17.33;7.38;;;;;;;2.63;88.79;102843.31;5075491;28;20166;-71
2021/04/17 03:47:16;;;;;;;14.25;6.85;;;;;;;2.47;88.30;102821.03;5067280;28;20020;-71
2021/04/17 03:49:42;;;;;;;18.30;7.47;;;;;;;2.59;88.56;102853.06;5066395;28;20036;-73
2021/04/17 03:52:07;;;;;;;19.38;7.78;;;;;;;2.56;89.15;102850.56;5074351;28;20138;-71
2021/04/17 03:54:33;;;;;;;14.30;7.60;;;;;;;2.49;88.97;102829.75;5070685;28;20028;-72
2021/04/17 03:56:59;;;;;;;14.60;8.18;;;;;;;2.57;89.25;102840.88;5064016;28;20086;-71
2021/04/17 03:59:24;;;;;;;17.08;8.25;;;;;;;2.61;89.28;102845.13;5068371;28;20023;-72
2021/04/17 04:01:50;;;;;;;19.98;8.80;;;;;;;2.35;89.28;102806.47;5072131;28;20103;-71
2021/04/17 04:04:16;;;;;;;16.63;7.93;;;;;;;2.58;90.01;102845.22;5065900;28;20066;-71
2021/04/17 04:06:41;;;;;;;14.93;8.38;;;;;;;2.58;90.12;102843.44;5075751;28;20027;-71
2021/04/17 04:09:07;;;;;;;17.48;8.10;;;;;;;2.58;89.82;102845.22;5074046;28;21638;-72
2021/04/17 04:11:32;;;;;;;17.95;8.00;;;;;;;2.56;90.59;102839.16;5074849;28;20044;-71
2021/04/17 04:13:58;;;;;;;18.08;7.90;;;;;;;2.53;90.82;102844.50;5067167;28;20033;-73
2021/04/17 04:16:23;;;;;;;16.05;9.05;;;;;;;2.51;90.68;102844.56;5075487;28;20080;-71
2021/04/17 04:18:49;;;;;;;18.65;8.85;;;;;;;2.50;90.99;102836.75;5074063;28;20089;-71
2021/04/17 04:21:15;;;;;;;22.95;9.55;;;;;;;2.34;91.14;102810.88;5068364;28;20036;-71
2021/04/17 04:23:40;;;;;;;17.90;8.70;;;;;;;2.49;90.68;102840.28;5105875;27;20024;-72
2021/04/17 04:26:06;;;;;;;17.52;8.82;;;;;;;2.52;91.20;102837.53;5073022;28;20109;-72
2021/04/17 04:28:31;;;;;;;16.25;9.02;;;;;;;2.51;90.59;102847.22;5068638;28;20024;-72
2021/04/17 04:30:56;;;;;;;20.00;8.82;;;;;;;2.55;90.38;102842.69;5097036;28;20028;-71
2021/04/17 04:33:22;;;;;;;18.83;9.27;;;;;;;2.51;90.48;102838.47;5062462;28;20036;-73
2021/04/17 04:35:49;;;;;;;18.55;9.05;;;;;;;2.50;90.85;102850.75;5063505;28;20034;-72
2021/04/17 04:38:15;;;;;;;22.92;11.27;;;;;;;2.23;90.79;102805.13;5067094;28;20128;-72
2021/04/17 04:40:40;;;;;;;19.63;11.25;;;;;;;2.42;90.91;102851.00;5066860;28;20029;-72
2021/04/17 04:43:06;;;;;;;21.83;11.43;;;;;;;2.40;91.04;102855.47;5053843;28;20040;-71
2021/04/17 04:45:31;;;;;;;19.02;9.52;;;;;;;2.17;91.25;102807.94;5058358;28;20035;-71
2021/04/17 04:47:57;;;;;;;19.92;9.07;;;;;;;2.47;90.82;102855.28;5059732;28;20035;-71
2021/04/17 04:50:23;;;;;;;17.65;8.52;;;;;;;2.50;90.97;102857.81;5056408;28;20054;-71
2021/04/17 04:52:48;;;;;;;24.27;10.85;;;;;;;2.51;90.77;102849.84;5073351;28;20033;-71
2021/04/17 04:55:14;;;;;;;21.88;10.20;;;;;;;2.53;90.69;102852.44;5054388;28;20501;-71
2021/04/17 04:57:39;;;;;;;19.00;8.90;;;;;;;2.54;90.38;102856.78;5056570;28;20109;-73
2021/04/17 05:00:06;;;;;;;18.42;8.82;;;;;;;2.48;90.60;102849.09;5055795;28;20063;-72
2021/04/17 05:02:32;;;;;;;24.50;10.38;;;;;;;2.46;90.16;102851.75;5056817;28;20041;-72
2021/04/17 05:04:57;;;;;;;19.20;10.13;;;;;;;2.37;90.32;102842.41;5059170;28;20035;-71
2021/04/17 05:07:23;;;;;;;19.13;9.80;;;;;;;2.44;90.60;102853.63;5074836;28;20073;-74
2021/04/17 05:09:48;;;;;;;16.42;9.25;;;;;;;2.41;90.39;102867.72;5044007;28;20032;-72
2021/04/17 05:12:13;;;;;;;20.20;9.77;;;;;;;2.41;90.62;102849.28;5058972;28;20043;-71
2021/04/17 05:14:39;;;;;;;18.70;10.52;;;;;;;2.42;90.75;102842.25;5053040;28;20032;-71
2021/04/17 05:17:04;;;;;;;16.38;9.05;;;;;;;2.47;91.04;102856.13;5060443;28;20391;-72
2021/04/17 05:19:30;;;;;;;16.77;10.63;;;;;;;2.55;90.79;102851.47;5060389;28;20032;-72
2021/04/17 05:21:55;;;;;;;15.80;8.70;;;;;;;2.59;89.98;102855.72;5055795;28;20041;-73
2021/04/17 05:24:21;;;;;;;20.08;9.07;;;;;;;2.64;90.32;102850.31;5059690;28;20098;-73
2021/04/17 05:26:46;;;;;;;23.83;13.65;;;;;;;2.68;90.65;102840.53;5052876;28;20059;-72
2021/04/17 05:29:12;;;;;;;18.17;10.10;;;;;;;2.74;90.36;102841.16;5062459;28;20036;-72
2021/04/17 05:31:37;;;;;;;18.02;9.05;;;;;;;2.83;89.93;102844.38;5055146;28;20429;-73
2021/04/17 05:34:05;;;;;;;20.90;8.90;;;;;;;2.53;89.52;102773.34;5056233;28;20058;-72
2021/04/17 05:36:32;;;;;;;17.38;8.60;;;;;;;3.02;89.26;102847.25;5058723;28;20032;-73
2021/04/17 05:38:57;;;;;;;17.38;8.55;;;;;;;3.11;88.97;102846.06;5089168;28;20049;-73
2021/04/17 05:41:25;;;;;;;19.02;8.48;;;;;;;3.15;88.80;102834.47;5054885;28;20494;-73
2021/04/17 05:43:50;;;;;;;20.00;8.68;;;;;;;3.01;88.75;102813.84;5056942;28;20073;-73
2021/04/17 05:46:16;;;;;;;18.42;9.50;;;;;;;3.29;89.46;102845.41;5044177;28;20038;-73
2021/04/17 05:48:41;;;;;;;20.77;10.57;;;;;;;3.22;88.51;102826.28;5059175;28;20536;-73
2021/04/17 05:51:06;;;;;;;22.30;11.20;;;;;;;3.46;88.74;102854.47;5057204;28;20067;-72
2021/04/17 05:53:32;;;;;;;24.50;12.95;;;;;;;3.53;88.90;102855.97;5057735;28;20052;-72
2021/04/17 05:55:57;;;;;;;23.67;12.20;;;;;;;3.60;88.57;102854.78;5074871;28;20041;-72
2021/04/17 05:58:23;;;;;;;29.40;12.32;;;;;;;3.57;87.78;102827.66;5062266;28;20024;-73
2021/04/17 06:00:48;;;;;;;32.20;13.40;;;;;;;3.70;88.10;102838.63;5045639;28;20069;-73
2021/04/17 06:03:14;;;;;;;21.98;11.27;;;;;;;3.78;88.09;102840.03;5059970;28;20499;-73
2021/04/17 06:05:39;;;;;;;24.33;12.00;;;;;;;3.88;88.12;102852.88;5065373;28;20105;-73
2021/04/17 06:08:05;;;;;;;21.15;11.60;;;;;;;3.71;88.52;102801.56;5058306;28;20032;-73
2021/04/17 06:10:31;;;;;;;18.17;11.48;;;;;;;4.17;87.50;102851.72;5074141;28;20030;-72
2021/04/17 06:12:56;;;;;;;28.30;14.45;;;;;;;4.43;87.67;102848.03;5071837;28;20453;-73
2021/04/17 06:15:22;;;;;;;22.23;12.40;;;;;;;5.34;85.17;102845.88;5064290;28;20029;-73
2021/04/17 06:17:48;;;;;;;18.85;11.50;;;;;;;6.77;77.59;102851.47;5062635;28;20094;-73
2021/04/17 06:20:13;;;;;;;19.67;11.80;;;;;;;8.06;71.60;102842.78;5064559;28;20032;-73
2021/04/17 06:22:39;;;;;;;20.58;10.55;;;;;;;9.20;66.90;102821.91;5063012;28;20409;-73
2021/04/17 06:25:08;;;;;;;17.85;9.15;;;;;;;10.29;62.47;102838.97;5060446;28;20597;-74
2021/04/17 06:27:33;;;;;;;13.98;7.93;;;;;;;10.98;60.14;102842.28;5063569;28;20028;-73
2021/04/17 06:30:00;;;;;;;16.42;7.40;;;;;;;11.44;58.79;102832.84;5063001;28;20549;-74
2021/04/17 06:32:25;;;;;;;15.45;6.47;;;;;;;12.06;56.71;102827.53;5063112;28;20516;-72
2021/04/17 06:34:51;;;;;;;14.88;6.90;;;;;;;12.47;55.84;102839.63;5062227;28;20035;-71
2021/04/17 06:37:16;;;;;;;12.25;6.97;;;;;;;12.74;54.26;102843.00;5064483;28;20145;-72
2021/04/17 06:39:42;;;;;;;12.63;6.30;;;;;;;13.17;53.38;102834.25;5063684;28;20068;-72
2021/04/17 06:42:13;;;;;;;10.32;5.63;;;;;;;13.44;52.48;102836.59;5059752;28;20614;-71
2021/04/17 06:44:43;;;;;;;12.95;6.03;;;;;;;13.57;52.45;102846.34;5069546;28;20032;-71
2021/04/17 06:47:11;;;;;;;10.18;6.03;;;;;;;13.56;52.66;102839.25;5070574;28;20025;-79
2021/04/17 06:49:38;;;;;;;;;;;;;;;13.78;52.33;102839.22;5079924;28;20021;-76
2021/04/17 06:52:05;;;;;;;12.15;5.70;;;;;;;14.24;50.79;102829.22;5072666;28;19912;-75
2021/04/17 06:54:31;;;;;;;12.05;5.28;;;;;;;14.61;51.01;102843.19;5082491;28;20085;-77
2021/04/17 06:56:56;;;;;;;11.85;4.07;;;;;;;15.09;48.88;102850.69;5060775;28;20039;-77
2021/04/17 06:59:23;;;;;;;8.30;3.03;;;;;;;15.64;47.39;102841.41;5070385;28;20037;-76
2021/04/17 07:01:48;;;;;;;7.22;4.35;;;;;;;15.29;49.15;102843.56;5072089;28;20032;-77
2021/04/17 07:04:14;;;;;;;7.47;3.03;;;;;;;15.80;46.46;102845.41;5080315;28;20028;-76
2021/04/17 07:06:40;;;;;;;9.23;3.38;;;;;;;16.01;47.00;102853.41;5058680;28;20491;-80
2021/04/17 07:09:06;;;;;;;5.25;2.70;;;;;;;16.25;45.59;102852.13;5074990;28;20029;-79
2021/04/17 07:11:31;;;;;;;7.35;2.70;;;;;;;16.30;45.63;102842.63;5070836;28;20028;-77
2021/04/17 07:14:13;;;;;;;8.85;3.22;;;;;;;16.35;45.53;102845.75;5068914;28;20074;-79
2021/04/17 07:16:54;;;;;;;8.23;2.63;;;;;;;16.95;42.78;102849.22;5092107;28;20082;-78
2021/04/17 07:19:21;;;;;;;6.72;2.85;;;;;;;16.68;43.35;102849.00;5076177;28;20043;-79
2021/04/17 07:21:47;;;;;;;7.68;3.10;;;;;;;16.65;43.05;102822.31;5069402;28;20032;-78
2021/04/17 07:24:24;;;;;;;8.40;2.63;;;;;;;16.98;42.24;102849.78;5062248;28;20040;-78
2021/04/17 07:26:50;;;;;;;5.63;2.95;;;;;;;16.99;42.90;102853.34;5097519;27;20093;-70
2021/04/17 07:29:15;;;;;;;10.05;3.30;;;;;;;17.01;42.68;102843.25;5060211;28;20032;-78
2021/04/17 07:31:53;;;;;;;6.07;2.72;;;;;;;17.08;42.77;102847.06;5067478;28;21928;-78
2021/04/17 07:34:22;;;;;;;5.68;2.92;;;;;;;17.77;40.78;102851.25;5058905;28;20047;-80
2021/04/17 07:36:56;;;;;;;5.13;2.50;;;;;;;17.78;40.32;102853.78;5088546;27;20032;-78
2021/04/17 07:39:28;;;;;;;10.15;2.88;;;;;;;17.98;39.96;102846.44;5062158;28;20083;-78
2021/04/17 07:42:11;;;;;;;8.20;2.33;;;;;;;17.86;39.71;102837.69;5060337;28;20530;-74
2021/04/17 07:44:43;;;;;;;6.85;2.55;;;;;;;17.82;38.87;102827.38;5062932;28;20556;-81
2021/04/17 07:47:09;;;;;;;5.18;2.30;;;;;;;17.86;38.88;102826.03;5092855;27;20111;-77
2021/04/17 07:49:36;;;;;;;7.65;2.53;;;;;;;18.46;36.69;102852.44;5072741;28;20036;-78
2021/04/17 07:52:13;;;;;;;4.93;2.00;;;;;;;18.57;36.69;102850.50;5059177;28;20064;-78
2021/04/17 07:55:00;;;;;;;7.78;2.33;;;;;;;18.74;34.60;102851.47;5062079;28;20047;-79
2021/04/17 07:57:34;;;;;;;4.90;2.10;;;;;;;18.81;34.10;102847.09;5086174;27;20445;-77
2021/04/17 07:59:59;;;;;;;3.22;1.70;;;;;;;18.77;34.49;102849.28;5056281;28;20466;-77
2021/04/17 08:02:27;;;;;;;5.25;2.70;;;;;;;18.89;34.80;102840.91;5055817;28;20107;-79
2021/04/17 08:04:53;;;;;;;6.78;2.38;;;;;;;19.10;33.90;102841.41;5087240;27;20086;-80
2021/04/17 08:07:19;;;;;;;4.10;2.08;;;;;;;19.38;32.53;102846.59;5056314;28;20029;-78
2021/04/17 08:09:47;;;;;;;3.47;1.63;;;;;;;19.44;32.66;102836.97;5067897;28;20042;-79
2021/04/17 08:12:16;;;;;;;4.03;1.92;;;;;;;19.77;31.30;102850.59;5041966;28;20037;-78
2021/04/17 08:14:42;;;;;;;6.85;2.00;;;;;;;19.81;30.84;102845.72;5061067;28;20386;-79
2021/04/17 08:17:08;;;;;;;8.38;2.03;;;;;;;19.36;31.78;102823.41;5059608;28;20040;-79
2021/04/17 08:19:34;;;;;;;5.32;2.00;;;;;;;19.56;31.64;102846.50;5057183;28;20033;-79
2021/04/17 08:21:59;;;;;;;6.57;1.90;;;;;;;20.06;31.12;102846.63;5053141;28;20107;-80
2021/04/17 08:24:28;;;;;;;3.95;1.77;;;;;;;20.14;31.01;102834.94;5055176;28;20085;-80
2021/04/17 08:26:55;;;;;;;5.72;1.70;;;;;;;20.25;29.51;102840.03;5055122;28;20111;-80
2021/04/17 08:29:50;;;;;;;5.38;2.00;;;;;;;20.42;29.16;102840.91;5072954;28;20021;-80
2021/04/17 08:32:25;;;;;;;3.30;1.80;;;;;;;20.67;27.80;102843.56;5061216;28;20024;-79
2021/04/17 08:35:07;;;;;;;4.28;1.70;;;;;;;20.24;28.41;102837.50;5061435;28;20028;-80
2021/04/17 08:37:35;;;;;;;2.75;1.60;;;;;;;20.23;28.70;102839.34;5091481;28;20033;-80
2021/04/17 08:40:03;;;;;;;2.88;1.75;;;;;;;20.30;28.55;102840.38;5072317;28;20114;-79
2021/04/17 08:42:49;;;;;;;2.63;1.60;;;;;;;20.23;28.32;102833.09;5054982;28;20040;-79
2021/04/17 08:45:19;;;;;;;5.35;1.90;;;;;;;20.35;27.59;102837.16;5056666;28;20047;-79
2021/04/17 08:47:59;;;;;;;3.80;1.70;;;;;;;20.27;26.79;102823.59;5057387;28;20020;-80
2021/04/17 08:50:28;;;;;;;3.38;1.90;;;;;;;19.79;28.09;102835.03;5059690;28;20090;-80
2021/04/17 08:53:02;;;;;;;3.78;1.60;;;;;;;19.93;28.31;102838.13;5056462;28;20051;-82
2021/04/17 08:55:45;;;;;;;2.83;1.60;;;;;;;19.64;28.60;102831.28;5073844;28;20427;-74
2021/04/17 08:58:12;;;;;;;4.85;1.88;;;;;;;19.81;26.85;102821.34;5082082;28;20047;-81
2021/04/17 09:01:02;;;;;;;4.13;1.50;;;;;;;19.85;27.02;102826.25;5057372;28;20542;-81
2021/04/17 09:03:42;;;;;;;5.55;1.98;;;;;;;20.29;26.23;102829.72;5072983;28;20157;-81
2021/04/17 09:06:22;;;;;;;3.45;1.60;;;;;;;20.38;25.88;102831.41;5074892;28;20040;-83
2021/04/17 09:09:19;;;;;;;2.33;1.42;;;;;;;20.53;26.25;102830.72;5073180;28;20063;-81
2021/04/17 09:11:50;;;;;;;2.47;1.45;;;;;;;20.27;26.86;102829.03;5053550;28;20029;-81
2021/04/17 09:14:28;;;;;;;2.90;1.55;;;;;;;20.03;26.52;102831.56;5068715;28;20057;-79
2021/04/17 09:17:08;;;;;;;3.63;1.85;;;;;;;19.53;27.06;102832.44;5067634;28;20040;-79
2021/04/17 09:19:44;;;;;;;5.40;1.80;;;;;;;19.62;27.32;102822.47;5073070;28;20032;-80
2021/04/17 09:22:29;;;;;;;3.85;1.67;;;;;;;19.76;27.97;102819.13;5064895;28;20041;-80
2021/04/17 09:25:04;;;;;;;5.18;1.58;;;;;;;19.56;27.20;102821.25;5066499;28;20066;-80
2021/04/17 09:27:39;;;;;;;3.35;1.67;;;;;;;19.87;27.43;102820.69;5066592;28;20021;-82
2021/04/17 09:30:08;;;;;;;2.80;1.40;;;;;;;20.02;26.74;102805.47;5096513;27;20294;-81
2021/04/17 09:32:35;;;;;;;4.60;1.92;;;;;;;19.95;27.22;102825.28;5072344;28;20017;-81
2021/04/17 09:35:10;;;;;;;3.85;1.50;;;;;;;20.12;27.12;102809.88;5073390;28;20112;-81
2021/04/17 09:37:36;;;;;;;4.70;1.80;;;;;;;20.38;27.08;102795.28;5080268;28;20131;-80
2021/04/17 09:40:04;;;;;;;3.95;1.80;;;;;;;20.60;27.39;102786.47;5063232;28;20060;-79
2021/04/17 09:42:36;;;;;;;2.90;1.58;;;;;;;20.64;25.63;102814.06;5093028;27;20036;-81
2021/04/17 09:45:07;;;;;;;2.78;1.48;;;;;;;19.93;25.32;102800.22;5068322;28;20028;-81
2021/04/17 09:47:33;;;;;;;3.05;1.30;;;;;;;19.79;26.25;102804.41;5070165;28;20028;-80
2021/04/17 09:49:59;;;;;;;2.55;1.70;;;;;;;19.80;26.51;102787.97;5062740;28;20601;-83
2021/04/17 09:52:26;;;;;;;4.10;1.50;;;;;;;19.47;27.57;102800.59;5055894;28;20052;-81
2021/04/17 09:55:04;;;;;;;4.15;1.90;;;;;;;19.49;25.91;102764.22;5098511;27;20509;-82
2021/04/17 09:57:30;;;;;;;4.53;1.73;;;;;;;19.46;27.13;102796.19;5056778;28;20051;-79
2021/04/17 10:00:01;;;;;;;2.35;1.50;;;;;;;19.27;26.09;102774.66;5090824;27;20070;-79
2021/04/17 10:02:47;;;;;;;2.08;1.40;;;;;;;18.57;27.13;102797.28;5062624;28;20442;-81
2021/04/17 10:05:15;;;;;;;4.53;1.65;;;;;;;18.80;27.32;102762.44;5072269;28;20059;-79
2021/04/17 10:07:43;;;;;;;7.60;1.90;;;;;;;19.16;27.83;102783.09;5057546;28;20017;-81
2021/04/17 10:10:09;;;;;;;;;;;;;;;19.18;28.20;102780.19;5073554;28;20028;-81
2021/04/17 10:12:50;;;;;;;5.40;1.63;;;;;;;18.93;28.25;102763.84;5067858;28;19913;-81
2021/04/17 10:15:17;;;;;;;4.65;1.60;;;;;;;19.03;27.70;102777.28;5067517;28;20139;-80
2021/04/17 10:17:42;;;;;;;3.70;1.60;;;;;;;18.77;28.27;102770.88;5070592;28;20055;-81
2021/04/17 10:20:10;;;;;;;4.72;2.00;;;;;;;18.91;28.52;102768.56;5071593;28;20032;-81
2021/04/17 10:22:35;;;;;;;4.95;2.15;;;;;;;18.73;28.22;102760.53;5070335;28;20074;-80
2021/04/17 10:25:02;;;;;;;3.97;1.63;;;;;;;18.72;28.77;102765.09;5064107;28;20402;-82
2021/04/17 10:27:34;;;;;;;3.42;1.75;;;;;;;18.38;28.03;102754.25;5072419;28;20036;-80
2021/04/17 10:29:59;;;;;;;3.13;1.70;;;;;;;18.26;28.29;102756.34;5067522;28;20398;-80
2021/04/17 10:32:28;;;;;;;5.22;2.00;;;;;;;17.87;28.67;102752.97;5070592;28;20047;-80
2021/04/17 10:35:06;;;;;;;5.03;2.10;;;;;;;17.62;28.53;102746.50;5069092;28;20093;-80
2021/04/17 10:37:44;;;;;;;3.47;1.85;;;;;;;17.48;29.42;102737.09;5060950;28;20024;-80
2021/04/17 10:40:12;;;;;;;4.78;2.20;;;;;;;17.14;30.19;102738.56;5071782;28;20068;-80
2021/04/17 10:43:00;;;;;;;4.97;1.98;;;;;;;16.96;28.55;102740.38;5060302;28;20044;-85
2021/04/17 10:45:28;;;;;;;3.90;2.20;;;;;;;16.72;29.46;102732.78;5061494;28;20020;-80
2021/04/17 10:48:04;;;;;;;4.68;1.70;;;;;;;16.60;28.99;102730.25;5066768;28;20033;-80
2021/04/17 10:50:33;;;;;;;4.85;1.73;;;;;;;16.51;30.28;102736.53;5061470;28;20025;-81
2021/04/17 10:53:05;;;;;;;3.22;1.75;;;;;;;16.31;29.89;102712.34;5061225;28;20847;-81
2021/04/17 10:55:32;;;;;;;5.28;2.28;;;;;;;16.30;29.55;102731.34;5054565;28;20032;-80
2021/04/17 10:57:57;;;;;;;5.70;1.90;;;;;;;15.80;30.02;102724.28;5060402;28;20522;-85
2021/04/17 11:00:33;;;;;;;3.47;1.95;;;;;;;15.68;30.16;102683.19;5093847;27;20032;-83
2021/04/17 11:02:58;;;;;;;4.75;1.92;;;;;;;15.81;29.51;102725.97;5057892;28;20513;-80
2021/04/17 11:05:30;;;;;;;5.80;2.40;;;;;;;15.90;30.30;102717.94;5071298;28;20036;-80
2021/04/17 11:08:00;;;;;;;7.25;2.03;;;;;;;15.39;30.75;102667.91;5074901;28;20022;-82
2021/04/17 11:10:31;;;;;;;6.10;2.35;;;;;;;15.72;31.15;102720.47;5070592;28;20425;-84
2021/04/17 11:12:57;;;;;;;5.50;2.25;;;;;;;15.25;33.19;102685.28;5096803;28;21138;-86
2021/04/17 11:15:27;;;;;;;7.20;2.10;;;;;;;15.43;32.10;102715.03;5066081;28;20032;-80
2021/04/17 11:18:12;;;;;;;4.90;1.90;;;;;;;15.18;32.46;102711.06;5068607;28;20090;-79
2021/04/17 11:20:56;;;;;;;5.65;1.92;;;;;;;15.13;30.28;102703.41;5081971;28;20021;-80
2021/04/17 11:23:35;;;;;;;4.40;2.20;;;;;;;15.03;32.79;102714.13;5062198;28;20051;-83
2021/04/17 11:26:13;;;;;;;6.07;2.22;;;;;;;14.76;34.01;102696.78;5073392;28;20039;-79
2021/04/17 11:28:41;;;;;;;5.95;2.00;;;;;;;14.44;33.27;102686.13;5066879;28;20090;-81
2021/04/17 11:31:08;;;;;;;7.38;2.28;;;;;;;14.49;33.80;102700.00;5061463;28;20123;-83